sensor_id;sensor_type;location;lat;lon;timestamp;P1;durP1;ratioP1;P2;durP2;ratioP2
52432;SDS011;38352;53.244;6.594;2024-01-11T00:00:48;40.13;;;18.75;;
52432;SDS011;38352;53.244;6.594;2024-01-11T00:03:24;38.67;;;17.83;;
52432;SDS011;38352;53.244;6.594;2024-01-11T00:05:50;40.67;;;19.35;;
52432;SDS011;38352;53.244;6.594;2024-01-11T00:08:17;36.25;;;19.23;;
52432;SDS011;38352;53.244;6.594;2024-01-11T00:10:43;38.75;;;18.08;;
52432;SDS011;38352;53.244;6.594;2024-01-11T00:13:09;41.75;;;19.23;;
52432;SDS011;38352;53.244;6.594;2024-01-11T00:15:36;42.28;;;20.00;;
52432;SDS011;38352;53.244;6.594;2024-01-11T00:18:02;40.85;;;17.88;;
52432;SDS011;38352;53.244;6.594;2024-01-11T00:20:29;37.00;;;17.40;;
52432;SDS011;38352;53.244;6.594;2024-01-11T00:22:57;46.53;;;20.05;;
52432;SDS011;38352;53.244;6.594;2024-01-11T00:25:24;43.95;;;21.23;;
52432;SDS011;38352;53.244;6.594;2024-01-11T00:27:50;41.17;;;20.83;;
52432;SDS011;38352;53.244;6.594;2024-01-11T00:30:17;42.75;;;20.30;;
52432;SDS011;38352;53.244;6.594;2024-01-11T00:32:43;42.28;;;18.67;;
52432;SDS011;38352;53.244;6.594;2024-01-11T00:35:10;45.45;;;18.95;;
52432;SDS011;38352;53.244;6.594;2024-01-11T00:37:36;48.58;;;21.00;;
52432;SDS011;38352;53.244;6.594;2024-01-11T00:40:04;48.50;;;20.10;;
52432;SDS011;38352;53.244;6.594;2024-01-11T00:42:31;49.20;;;19.92;;
52432;SDS011;38352;53.244;6.594;2024-01-11T00:45:04;45.28;;;18.75;;
52432;SDS011;38352;53.244;6.594;2024-01-11T00:47:36;41.25;;;20.02;;
52432;SDS011;38352;53.244;6.594;2024-01-11T00:50:08;44.92;;;20.05;;
52432;SDS011;38352;53.244;6.594;2024-01-11T00:52:37;45.53;;;20.05;;
52432;SDS011;38352;53.244;6.594;2024-01-11T00:55:04;41.72;;;18.67;;
52432;SDS011;38352;53.244;6.594;2024-01-11T00:57:33;45.45;;;21.10;;
52432;SDS011;38352;53.244;6.594;2024-01-11T01:00:02;45.75;;;21.27;;
52432;SDS011;38352;53.244;6.594;2024-01-11T01:02:36;47.58;;;21.02;;
52432;SDS011;38352;53.244;6.594;2024-01-11T01:05:03;44.63;;;19.50;;
52432;SDS011;38352;53.244;6.594;2024-01-11T01:07:29;44.38;;;19.52;;
52432;SDS011;38352;53.244;6.594;2024-01-11T01:10:05;42.83;;;18.85;;
52432;SDS011;38352;53.244;6.594;2024-01-11T01:12:31;43.90;;;19.80;;
52432;SDS011;38352;53.244;6.594;2024-01-11T01:15:00;43.83;;;18.77;;
52432;SDS011;38352;53.244;6.594;2024-01-11T01:17:26;46.72;;;21.02;;
52432;SDS011;38352;53.244;6.594;2024-01-11T01:19:52;48.63;;;20.88;;
52432;SDS011;38352;53.244;6.594;2024-01-11T01:22:18;44.83;;;19.00;;
52432;SDS011;38352;53.244;6.594;2024-01-11T01:24:44;43.00;;;18.88;;
52432;SDS011;38352;53.244;6.594;2024-01-11T01:27:10;46.80;;;20.45;;
52432;SDS011;38352;53.244;6.594;2024-01-11T01:29:37;45.60;;;21.08;;
52432;SDS011;38352;53.244;6.594;2024-01-11T01:32:04;52.13;;;22.92;;
52432;SDS011;38352;53.244;6.594;2024-01-11T01:34:30;48.63;;;21.35;;
52432;SDS011;38352;53.244;6.594;2024-01-11T01:36:56;45.92;;;20.75;;
52432;SDS011;38352;53.244;6.594;2024-01-11T01:39:22;49.75;;;20.98;;
52432;SDS011;38352;53.244;6.594;2024-01-11T01:41:48;46.53;;;20.33;;
52432;SDS011;38352;53.244;6.594;2024-01-11T01:44:14;47.22;;;20.33;;
52432;SDS011;38352;53.244;6.594;2024-01-11T01:46:40;50.70;;;20.55;;
52432;SDS011;38352;53.244;6.594;2024-01-11T01:49:06;52.30;;;20.83;;
52432;SDS011;38352;53.244;6.594;2024-01-11T01:51:33;47.20;;;20.25;;
52432;SDS011;38352;53.244;6.594;2024-01-11T01:53:59;46.47;;;19.90;;
52432;SDS011;38352;53.244;6.594;2024-01-11T01:56:25;46.47;;;19.38;;
52432;SDS011;38352;53.244;6.594;2024-01-11T01:58:53;43.00;;;19.42;;
52432;SDS011;38352;53.244;6.594;2024-01-11T02:01:19;43.58;;;19.08;;
52432;SDS011;38352;53.244;6.594;2024-01-11T02:03:47;39.67;;;18.40;;
52432;SDS011;38352;53.244;6.594;2024-01-11T02:06:15;48.78;;;20.55;;
52432;SDS011;38352;53.244;6.594;2024-01-11T02:08:42;45.58;;;19.67;;
52432;SDS011;38352;53.244;6.594;2024-01-11T02:11:09;50.92;;;20.50;;
52432;SDS011;38352;53.244;6.594;2024-01-11T02:13:36;45.90;;;20.13;;
52432;SDS011;38352;53.244;6.594;2024-01-11T02:16:03;51.08;;;21.08;;
52432;SDS011;38352;53.244;6.594;2024-01-11T02:18:29;47.08;;;21.52;;
52432;SDS011;38352;53.244;6.594;2024-01-11T02:20:55;47.15;;;20.77;;
52432;SDS011;38352;53.244;6.594;2024-01-11T02:23:22;43.28;;;19.35;;
52432;SDS011;38352;53.244;6.594;2024-01-11T02:25:50;43.65;;;19.77;;
52432;SDS011;38352;53.244;6.594;2024-01-11T02:28:16;47.90;;;22.50;;
52432;SDS011;38352;53.244;6.594;2024-01-11T02:30:42;45.00;;;20.33;;
52432;SDS011;38352;53.244;6.594;2024-01-11T02:33:08;48.40;;;19.60;;
52432;SDS011;38352;53.244;6.594;2024-01-11T02:35:34;49.78;;;21.88;;
52432;SDS011;38352;53.244;6.594;2024-01-11T02:38:03;47.15;;;21.25;;
52432;SDS011;38352;53.244;6.594;2024-01-11T02:40:30;46.22;;;19.20;;
52432;SDS011;38352;53.244;6.594;2024-01-11T02:42:56;50.03;;;21.33;;
52432;SDS011;38352;53.244;6.594;2024-01-11T02:45:22;47.28;;;21.58;;
52432;SDS011;38352;53.244;6.594;2024-01-11T02:47:49;46.90;;;20.35;;
52432;SDS011;38352;53.244;6.594;2024-01-11T02:50:15;48.72;;;20.60;;
52432;SDS011;38352;53.244;6.594;2024-01-11T02:52:41;50.15;;;20.65;;
52432;SDS011;38352;53.244;6.594;2024-01-11T02:55:07;46.75;;;21.83;;
52432;SDS011;38352;53.244;6.594;2024-01-11T02:57:34;45.70;;;17.88;;
52432;SDS011;38352;53.244;6.594;2024-01-11T03:00:00;40.47;;;18.27;;
52432;SDS011;38352;53.244;6.594;2024-01-11T03:02:26;40.42;;;18.00;;
52432;SDS011;38352;53.244;6.594;2024-01-11T03:04:52;46.40;;;20.52;;
52432;SDS011;38352;53.244;6.594;2024-01-11T03:07:18;54.25;;;21.25;;
52432;SDS011;38352;53.244;6.594;2024-01-11T03:09:44;47.63;;;21.20;;
52432;SDS011;38352;53.244;6.594;2024-01-11T03:12:10;48.38;;;20.17;;
52432;SDS011;38352;53.244;6.594;2024-01-11T03:14:37;44.75;;;20.33;;
52432;SDS011;38352;53.244;6.594;2024-01-11T03:17:03;44.83;;;19.45;;
52432;SDS011;38352;53.244;6.594;2024-01-11T03:19:29;50.80;;;20.73;;
52432;SDS011;38352;53.244;6.594;2024-01-11T03:21:55;47.63;;;20.20;;
52432;SDS011;38352;53.244;6.594;2024-01-11T03:24:22;48.25;;;21.05;;
52432;SDS011;38352;53.244;6.594;2024-01-11T03:26:48;50.38;;;21.70;;
52432;SDS011;38352;53.244;6.594;2024-01-11T03:29:14;49.03;;;20.42;;
52432;SDS011;38352;53.244;6.594;2024-01-11T03:31:40;42.53;;;19.77;;
52432;SDS011;38352;53.244;6.594;2024-01-11T03:34:09;46.92;;;20.02;;
52432;SDS011;38352;53.244;6.594;2024-01-11T03:36:35;45.75;;;20.23;;
52432;SDS011;38352;53.244;6.594;2024-01-11T03:39:02;50.60;;;21.70;;
52432;SDS011;38352;53.244;6.594;2024-01-11T03:41:28;55.60;;;22.08;;
52432;SDS011;38352;53.244;6.594;2024-01-11T03:43:54;50.28;;;20.58;;
52432;SDS011;38352;53.244;6.594;2024-01-11T03:46:20;51.78;;;21.30;;
52432;SDS011;38352;53.244;6.594;2024-01-11T03:48:46;45.17;;;19.65;;
52432;SDS011;38352;53.244;6.594;2024-01-11T03:51:13;45.05;;;19.85;;
52432;SDS011;38352;53.244;6.594;2024-01-11T03:53:39;52.58;;;22.20;;
52432;SDS011;38352;53.244;6.594;2024-01-11T03:56:05;46.42;;;21.42;;
52432;SDS011;38352;53.244;6.594;2024-01-11T03:58:31;48.33;;;22.27;;
52432;SDS011;38352;53.244;6.594;2024-01-11T04:00:57;53.63;;;22.60;;
52432;SDS011;38352;53.244;6.594;2024-01-11T04:03:23;49.15;;;21.50;;
52432;SDS011;38352;53.244;6.594;2024-01-11T04:05:49;51.03;;;21.67;;
52432;SDS011;38352;53.244;6.594;2024-01-11T04:08:16;44.53;;;19.77;;
52432;SDS011;38352;53.244;6.594;2024-01-11T04:10:42;53.03;;;21.55;;
52432;SDS011;38352;53.244;6.594;2024-01-11T04:13:08;53.55;;;23.58;;
52432;SDS011;38352;53.244;6.594;2024-01-11T04:15:34;57.03;;;23.17;;
52432;SDS011;38352;53.244;6.594;2024-01-11T04:18:00;48.75;;;22.02;;
52432;SDS011;38352;53.244;6.594;2024-01-11T04:20:26;50.53;;;21.02;;
52432;SDS011;38352;53.244;6.594;2024-01-11T04:22:52;52.05;;;22.85;;
52432;SDS011;38352;53.244;6.594;2024-01-11T04:25:18;49.05;;;21.58;;
52432;SDS011;38352;53.244;6.594;2024-01-11T04:27:45;48.88;;;21.30;;
52432;SDS011;38352;53.244;6.594;2024-01-11T04:30:11;57.92;;;23.75;;
52432;SDS011;38352;53.244;6.594;2024-01-11T04:32:37;53.97;;;22.90;;
52432;SDS011;38352;53.244;6.594;2024-01-11T04:35:04;51.35;;;22.30;;
52432;SDS011;38352;53.244;6.594;2024-01-11T04:37:30;53.50;;;23.33;;
52432;SDS011;38352;53.244;6.594;2024-01-11T04:39:56;57.30;;;24.35;;
52432;SDS011;38352;53.244;6.594;2024-01-11T04:42:26;57.22;;;24.30;;
52432;SDS011;38352;53.244;6.594;2024-01-11T04:44:52;55.13;;;22.42;;
52432;SDS011;38352;53.244;6.594;2024-01-11T04:47:18;56.08;;;22.80;;
52432;SDS011;38352;53.244;6.594;2024-01-11T04:49:44;53.65;;;24.00;;
52432;SDS011;38352;53.244;6.594;2024-01-11T04:52:10;54.10;;;23.55;;
52432;SDS011;38352;53.244;6.594;2024-01-11T04:54:37;55.90;;;23.65;;
52432;SDS011;38352;53.244;6.594;2024-01-11T04:57:03;56.65;;;23.00;;
52432;SDS011;38352;53.244;6.594;2024-01-11T04:59:30;55.58;;;23.70;;
52432;SDS011;38352;53.244;6.594;2024-01-11T05:01:56;52.92;;;22.80;;
52432;SDS011;38352;53.244;6.594;2024-01-11T05:04:22;52.17;;;22.75;;
52432;SDS011;38352;53.244;6.594;2024-01-11T05:06:48;52.65;;;23.73;;
52432;SDS011;38352;53.244;6.594;2024-01-11T05:09:14;56.00;;;24.48;;
52432;SDS011;38352;53.244;6.594;2024-01-11T05:11:40;51.20;;;23.55;;
52432;SDS011;38352;53.244;6.594;2024-01-11T05:14:06;52.83;;;23.73;;
52432;SDS011;38352;53.244;6.594;2024-01-11T05:16:33;56.45;;;23.42;;
52432;SDS011;38352;53.244;6.594;2024-01-11T05:19:00;51.08;;;22.50;;
52432;SDS011;38352;53.244;6.594;2024-01-11T05:21:26;53.97;;;24.05;;
52432;SDS011;38352;53.244;6.594;2024-01-11T05:23:52;51.38;;;23.00;;
52432;SDS011;38352;53.244;6.594;2024-01-11T05:26:19;59.90;;;24.50;;
52432;SDS011;38352;53.244;6.594;2024-01-11T05:28:45;53.80;;;24.02;;
52432;SDS011;38352;53.244;6.594;2024-01-11T05:31:12;53.60;;;22.15;;
52432;SDS011;38352;53.244;6.594;2024-01-11T05:33:39;56.28;;;23.60;;
52432;SDS011;38352;53.244;6.594;2024-01-11T05:36:05;54.88;;;23.40;;
52432;SDS011;38352;53.244;6.594;2024-01-11T05:38:31;52.83;;;23.73;;
52432;SDS011;38352;53.244;6.594;2024-01-11T05:40:57;54.10;;;24.50;;
52432;SDS011;38352;53.244;6.594;2024-01-11T05:43:23;56.40;;;25.98;;
52432;SDS011;38352;53.244;6.594;2024-01-11T05:45:50;56.47;;;24.50;;
52432;SDS011;38352;53.244;6.594;2024-01-11T05:48:16;54.80;;;24.38;;
52432;SDS011;38352;53.244;6.594;2024-01-11T05:50:43;63.15;;;26.15;;
52432;SDS011;38352;53.244;6.594;2024-01-11T05:53:09;59.20;;;25.67;;
52432;SDS011;38352;53.244;6.594;2024-01-11T05:55:38;51.65;;;23.23;;
52432;SDS011;38352;53.244;6.594;2024-01-11T05:58:05;49.40;;;23.02;;
52432;SDS011;38352;53.244;6.594;2024-01-11T06:00:31;58.10;;;23.25;;
52432;SDS011;38352;53.244;6.594;2024-01-11T06:02:57;56.78;;;24.30;;
52432;SDS011;38352;53.244;6.594;2024-01-11T06:05:23;53.85;;;24.33;;
52432;SDS011;38352;53.244;6.594;2024-01-11T06:07:49;52.38;;;22.67;;
52432;SDS011;38352;53.244;6.594;2024-01-11T06:10:15;56.38;;;24.52;;
52432;SDS011;38352;53.244;6.594;2024-01-11T06:12:42;49.83;;;22.40;;
52432;SDS011;38352;53.244;6.594;2024-01-11T06:15:08;57.17;;;25.10;;
52432;SDS011;38352;53.244;6.594;2024-01-11T06:17:35;50.17;;;22.73;;
52432;SDS011;38352;53.244;6.594;2024-01-11T06:20:01;52.80;;;24.55;;
52432;SDS011;38352;53.244;6.594;2024-01-11T06:22:28;60.58;;;24.73;;
52432;SDS011;38352;53.244;6.594;2024-01-11T06:24:54;59.42;;;24.08;;
52432;SDS011;38352;53.244;6.594;2024-01-11T06:27:20;55.20;;;23.02;;
52432;SDS011;38352;53.244;6.594;2024-01-11T06:29:46;52.88;;;23.15;;
52432;SDS011;38352;53.244;6.594;2024-01-11T06:32:13;52.50;;;23.33;;
52432;SDS011;38352;53.244;6.594;2024-01-11T06:34:39;50.30;;;21.95;;
52432;SDS011;38352;53.244;6.594;2024-01-11T06:37:10;50.53;;;23.27;;
52432;SDS011;38352;53.244;6.594;2024-01-11T06:39:36;51.80;;;22.75;;
52432;SDS011;38352;53.244;6.594;2024-01-11T06:42:02;50.53;;;22.38;;
52432;SDS011;38352;53.244;6.594;2024-01-11T06:44:29;48.63;;;21.58;;
52432;SDS011;38352;53.244;6.594;2024-01-11T06:46:56;51.35;;;22.08;;
52432;SDS011;38352;53.244;6.594;2024-01-11T06:49:22;50.58;;;22.33;;
52432;SDS011;38352;53.244;6.594;2024-01-11T06:51:48;49.90;;;22.02;;
52432;SDS011;38352;53.244;6.594;2024-01-11T06:54:14;53.55;;;24.35;;
52432;SDS011;38352;53.244;6.594;2024-01-11T06:56:40;48.58;;;22.10;;
52432;SDS011;38352;53.244;6.594;2024-01-11T06:59:06;47.97;;;21.85;;
52432;SDS011;38352;53.244;6.594;2024-01-11T07:01:32;49.55;;;21.95;;
52432;SDS011;38352;53.244;6.594;2024-01-11T07:03:58;49.85;;;22.60;;
52432;SDS011;38352;53.244;6.594;2024-01-11T07:06:24;54.78;;;22.17;;
52432;SDS011;38352;53.244;6.594;2024-01-11T07:08:51;49.55;;;21.48;;
52432;SDS011;38352;53.244;6.594;2024-01-11T07:11:17;46.35;;;20.35;;
52432;SDS011;38352;53.244;6.594;2024-01-11T07:13:43;46.78;;;21.58;;
52432;SDS011;38352;53.244;6.594;2024-01-11T07:16:09;48.05;;;21.40;;
52432;SDS011;38352;53.244;6.594;2024-01-11T07:18:35;49.47;;;21.50;;
52432;SDS011;38352;53.244;6.594;2024-01-11T07:21:01;50.28;;;22.42;;
52432;SDS011;38352;53.244;6.594;2024-01-11T07:23:27;48.13;;;21.73;;
52432;SDS011;38352;53.244;6.594;2024-01-11T07:25:53;51.88;;;20.90;;
52432;SDS011;38352;53.244;6.594;2024-01-11T07:28:20;52.05;;;24.65;;
52432;SDS011;38352;53.244;6.594;2024-01-11T07:30:50;49.00;;;23.30;;
52432;SDS011;38352;53.244;6.594;2024-01-11T07:33:17;49.13;;;21.75;;
52432;SDS011;38352;53.244;6.594;2024-01-11T07:35:44;52.05;;;22.10;;
52432;SDS011;38352;53.244;6.594;2024-01-11T07:38:10;43.90;;;20.75;;
52432;SDS011;38352;53.244;6.594;2024-01-11T07:40:37;47.88;;;22.95;;
52432;SDS011;38352;53.244;6.594;2024-01-11T07:43:03;51.55;;;20.83;;
52432;SDS011;38352;53.244;6.594;2024-01-11T07:45:29;46.60;;;20.45;;
52432;SDS011;38352;53.244;6.594;2024-01-11T07:47:55;48.28;;;20.58;;
52432;SDS011;38352;53.244;6.594;2024-01-11T07:50:21;42.90;;;20.33;;
52432;SDS011;38352;53.244;6.594;2024-01-11T07:52:47;46.90;;;21.30;;
52432;SDS011;38352;53.244;6.594;2024-01-11T07:55:13;45.85;;;19.52;;
52432;SDS011;38352;53.244;6.594;2024-01-11T07:57:40;44.35;;;21.40;;
52432;SDS011;38352;53.244;6.594;2024-01-11T08:00:06;41.25;;;19.35;;
52432;SDS011;38352;53.244;6.594;2024-01-11T08:02:33;47.42;;;21.05;;
52432;SDS011;38352;53.244;6.594;2024-01-11T08:04:59;41.42;;;20.58;;
52432;SDS011;38352;53.244;6.594;2024-01-11T08:07:25;45.58;;;20.88;;
52432;SDS011;38352;53.244;6.594;2024-01-11T08:09:52;45.03;;;20.27;;
52432;SDS011;38352;53.244;6.594;2024-01-11T08:12:18;44.70;;;21.33;;
52432;SDS011;38352;53.244;6.594;2024-01-11T08:14:44;46.22;;;21.23;;
52432;SDS011;38352;53.244;6.594;2024-01-11T08:17:11;42.67;;;22.38;;
52432;SDS011;38352;53.244;6.594;2024-01-11T08:19:38;40.88;;;19.20;;
52432;SDS011;38352;53.244;6.594;2024-01-11T08:22:05;43.08;;;19.70;;
52432;SDS011;38352;53.244;6.594;2024-01-11T08:24:31;48.28;;;20.52;;
52432;SDS011;38352;53.244;6.594;2024-01-11T08:26:59;40.25;;;19.73;;
52432;SDS011;38352;53.244;6.594;2024-01-11T08:29:25;47.92;;;22.02;;
52432;SDS011;38352;53.244;6.594;2024-01-11T08:31:53;47.47;;;21.65;;
52432;SDS011;38352;53.244;6.594;2024-01-11T08:34:22;44.88;;;19.42;;
52432;SDS011;38352;53.244;6.594;2024-01-11T08:36:48;45.38;;;21.48;;
52432;SDS011;38352;53.244;6.594;2024-01-11T08:39:14;40.25;;;20.33;;
52432;SDS011;38352;53.244;6.594;2024-01-11T08:41:41;44.30;;;20.33;;
52432;SDS011;38352;53.244;6.594;2024-01-11T08:44:07;45.72;;;19.98;;
52432;SDS011;38352;53.244;6.594;2024-01-11T08:46:33;46.10;;;21.05;;
52432;SDS011;38352;53.244;6.594;2024-01-11T08:49:00;40.83;;;18.42;;
52432;SDS011;38352;53.244;6.594;2024-01-11T08:51:28;42.47;;;20.33;;
52432;SDS011;38352;53.244;6.594;2024-01-11T08:53:54;51.17;;;22.27;;
52432;SDS011;38352;53.244;6.594;2024-01-11T08:56:21;48.65;;;20.90;;
52432;SDS011;38352;53.244;6.594;2024-01-11T08:58:47;51.13;;;21.80;;
52432;SDS011;38352;53.244;6.594;2024-01-11T09:01:13;45.00;;;20.35;;
52432;SDS011;38352;53.244;6.594;2024-01-11T09:03:40;38.65;;;18.52;;
52432;SDS011;38352;53.244;6.594;2024-01-11T09:06:06;45.83;;;20.75;;
52432;SDS011;38352;53.244;6.594;2024-01-11T09:08:32;41.83;;;19.50;;
52432;SDS011;38352;53.244;6.594;2024-01-11T09:10:58;46.85;;;20.52;;
52432;SDS011;38352;53.244;6.594;2024-01-11T09:13:25;50.72;;;22.20;;
52432;SDS011;38352;53.244;6.594;2024-01-11T09:15:51;41.97;;;18.80;;
52432;SDS011;38352;53.244;6.594;2024-01-11T09:18:17;43.25;;;21.63;;
52432;SDS011;38352;53.244;6.594;2024-01-11T09:20:43;45.13;;;20.63;;
52432;SDS011;38352;53.244;6.594;2024-01-11T09:23:10;39.58;;;18.02;;
52432;SDS011;38352;53.244;6.594;2024-01-11T09:25:36;40.92;;;18.90;;
52432;SDS011;38352;53.244;6.594;2024-01-11T09:28:02;37.03;;;18.15;;
52432;SDS011;38352;53.244;6.594;2024-01-11T09:30:28;42.33;;;18.73;;
52432;SDS011;38352;53.244;6.594;2024-01-11T09:32:54;41.03;;;18.75;;
52432;SDS011;38352;53.244;6.594;2024-01-11T09:35:24;39.75;;;17.40;;
52432;SDS011;38352;53.244;6.594;2024-01-11T09:37:50;44.55;;;19.58;;
52432;SDS011;38352;53.244;6.594;2024-01-11T09:40:17;40.40;;;19.10;;
52432;SDS011;38352;53.244;6.594;2024-01-11T09:42:43;41.38;;;19.42;;
52432;SDS011;38352;53.244;6.594;2024-01-11T09:45:10;42.05;;;19.70;;
52432;SDS011;38352;53.244;6.594;2024-01-11T09:47:38;40.35;;;18.73;;
52432;SDS011;38352;53.244;6.594;2024-01-11T09:50:05;45.33;;;21.20;;
52432;SDS011;38352;53.244;6.594;2024-01-11T09:52:31;42.60;;;20.73;;
52432;SDS011;38352;53.244;6.594;2024-01-11T09:54:58;35.30;;;18.67;;
52432;SDS011;38352;53.244;6.594;2024-01-11T09:57:24;43.15;;;20.13;;
52432;SDS011;38352;53.244;6.594;2024-01-11T09:59:51;42.15;;;18.67;;
52432;SDS011;38352;53.244;6.594;2024-01-11T10:02:20;39.25;;;19.55;;
52432;SDS011;38352;53.244;6.594;2024-01-11T10:04:47;42.90;;;19.08;;
52432;SDS011;38352;53.244;6.594;2024-01-11T10:07:13;39.85;;;19.00;;
52432;SDS011;38352;53.244;6.594;2024-01-11T10:09:40;40.17;;;20.05;;
52432;SDS011;38352;53.244;6.594;2024-01-11T10:12:06;42.10;;;19.27;;
52432;SDS011;38352;53.244;6.594;2024-01-11T10:14:33;38.47;;;18.02;;
52432;SDS011;38352;53.244;6.594;2024-01-11T10:16:59;37.28;;;18.67;;
52432;SDS011;38352;53.244;6.594;2024-01-11T10:19:25;39.95;;;19.35;;
52432;SDS011;38352;53.244;6.594;2024-01-11T10:21:51;42.38;;;18.23;;
52432;SDS011;38352;53.244;6.594;2024-01-11T10:24:18;38.17;;;18.45;;
52432;SDS011;38352;53.244;6.594;2024-01-11T10:26:51;38.03;;;18.77;;
52432;SDS011;38352;53.244;6.594;2024-01-11T10:29:17;40.67;;;20.05;;
52432;SDS011;38352;53.244;6.594;2024-01-11T10:31:44;40.80;;;18.13;;
52432;SDS011;38352;53.244;6.594;2024-01-11T10:34:10;38.47;;;18.70;;
52432;SDS011;38352;53.244;6.594;2024-01-11T10:36:36;39.28;;;18.13;;
52432;SDS011;38352;53.244;6.594;2024-01-11T10:39:02;35.50;;;18.08;;
52432;SDS011;38352;53.244;6.594;2024-01-11T10:41:39;43.83;;;18.88;;
52432;SDS011;38352;53.244;6.594;2024-01-11T10:44:12;40.03;;;17.73;;
52432;SDS011;38352;53.244;6.594;2024-01-11T10:46:42;39.95;;;18.45;;
52432;SDS011;38352;53.244;6.594;2024-01-11T10:49:10;36.78;;;17.13;;
52432;SDS011;38352;53.244;6.594;2024-01-11T10:51:37;38.13;;;17.67;;
52432;SDS011;38352;53.244;6.594;2024-01-11T10:54:04;35.65;;;18.10;;
52432;SDS011;38352;53.244;6.594;2024-01-11T10:56:30;37.17;;;17.75;;
52432;SDS011;38352;53.244;6.594;2024-01-11T10:58:57;32.10;;;17.85;;
52432;SDS011;38352;53.244;6.594;2024-01-11T11:01:23;34.78;;;16.88;;
52432;SDS011;38352;53.244;6.594;2024-01-11T11:03:50;39.05;;;18.13;;
52432;SDS011;38352;53.244;6.594;2024-01-11T11:06:18;34.25;;;17.02;;
52432;SDS011;38352;53.244;6.594;2024-01-11T11:08:44;35.15;;;18.00;;
52432;SDS011;38352;53.244;6.594;2024-01-11T11:11:12;34.83;;;16.92;;
52432;SDS011;38352;53.244;6.594;2024-01-11T11:13:39;34.13;;;17.05;;
52432;SDS011;38352;53.244;6.594;2024-01-11T11:16:06;34.05;;;17.13;;
52432;SDS011;38352;53.244;6.594;2024-01-11T11:18:32;35.38;;;17.02;;
52432;SDS011;38352;53.244;6.594;2024-01-11T11:21:01;35.92;;;18.25;;
52432;SDS011;38352;53.244;6.594;2024-01-11T11:23:32;34.30;;;15.30;;
52432;SDS011;38352;53.244;6.594;2024-01-11T11:25:58;34.00;;;17.40;;
52432;SDS011;38352;53.244;6.594;2024-01-11T11:28:24;32.28;;;16.40;;
52432;SDS011;38352;53.244;6.594;2024-01-11T11:30:52;31.95;;;16.33;;
52432;SDS011;38352;53.244;6.594;2024-01-11T11:33:22;37.55;;;17.65;;
52432;SDS011;38352;53.244;6.594;2024-01-11T11:35:52;34.13;;;15.75;;
52432;SDS011;38352;53.244;6.594;2024-01-11T11:38:28;34.78;;;17.85;;
52432;SDS011;38352;53.244;6.594;2024-01-11T11:40:55;34.45;;;17.55;;
52432;SDS011;38352;53.244;6.594;2024-01-11T11:43:22;32.60;;;16.65;;
52432;SDS011;38352;53.244;6.594;2024-01-11T11:45:49;40.42;;;19.25;;
52432;SDS011;38352;53.244;6.594;2024-01-11T11:51:06;32.08;;;15.55;;
52432;SDS011;38352;53.244;6.594;2024-01-11T11:53:34;36.92;;;17.50;;
52432;SDS011;38352;53.244;6.594;2024-01-11T11:56:01;39.10;;;17.15;;
52432;SDS011;38352;53.244;6.594;2024-01-11T11:58:27;34.92;;;18.10;;
52432;SDS011;38352;53.244;6.594;2024-01-11T12:00:58;32.05;;;17.63;;
52432;SDS011;38352;53.244;6.594;2024-01-11T12:03:28;30.65;;;16.30;;
52432;SDS011;38352;53.244;6.594;2024-01-11T12:05:55;32.80;;;16.83;;
52432;SDS011;38352;53.244;6.594;2024-01-11T12:08:22;37.15;;;17.35;;
52432;SDS011;38352;53.244;6.594;2024-01-11T12:10:48;39.53;;;18.02;;
52432;SDS011;38352;53.244;6.594;2024-01-11T12:13:14;34.25;;;17.15;;
52432;SDS011;38352;53.244;6.594;2024-01-11T12:15:40;33.50;;;16.85;;
52432;SDS011;38352;53.244;6.594;2024-01-11T12:18:07;38.13;;;15.98;;
52432;SDS011;38352;53.244;6.594;2024-01-11T12:20:33;31.38;;;16.65;;
52432;SDS011;38352;53.244;6.594;2024-01-11T12:22:59;36.13;;;17.55;;
52432;SDS011;38352;53.244;6.594;2024-01-11T12:25:27;36.67;;;17.25;;
52432;SDS011;38352;53.244;6.594;2024-01-11T12:27:53;30.42;;;15.43;;
52432;SDS011;38352;53.244;6.594;2024-01-11T12:30:25;33.17;;;15.95;;
52432;SDS011;38352;53.244;6.594;2024-01-11T12:32:52;39.35;;;18.05;;
52432;SDS011;38352;53.244;6.594;2024-01-11T12:35:19;35.05;;;16.85;;
52432;SDS011;38352;53.244;6.594;2024-01-11T12:38:04;30.73;;;16.67;;
52432;SDS011;38352;53.244;6.594;2024-01-11T12:40:37;36.17;;;17.88;;
52432;SDS011;38352;53.244;6.594;2024-01-11T12:43:04;34.85;;;16.65;;
52432;SDS011;38352;53.244;6.594;2024-01-11T12:45:36;34.47;;;17.05;;
52432;SDS011;38352;53.244;6.594;2024-01-11T12:48:03;36.22;;;16.92;;
52432;SDS011;38352;53.244;6.594;2024-01-11T12:50:30;34.97;;;17.10;;
52432;SDS011;38352;53.244;6.594;2024-01-11T12:55:37;39.45;;;15.55;;
52432;SDS011;38352;53.244;6.594;2024-01-11T12:58:06;35.42;;;17.15;;
52432;SDS011;38352;53.244;6.594;2024-01-11T13:00:35;35.05;;;15.93;;
52432;SDS011;38352;53.244;6.594;2024-01-11T13:03:02;32.90;;;16.13;;
52432;SDS011;38352;53.244;6.594;2024-01-11T13:05:28;40.17;;;17.77;;
52432;SDS011;38352;53.244;6.594;2024-01-11T13:08:00;40.33;;;18.73;;
52432;SDS011;38352;53.244;6.594;2024-01-11T13:10:27;32.85;;;17.10;;
52432;SDS011;38352;53.244;6.594;2024-01-11T13:12:53;31.73;;;16.20;;
52432;SDS011;38352;53.244;6.594;2024-01-11T13:15:20;32.92;;;16.55;;
52432;SDS011;38352;53.244;6.594;2024-01-11T13:17:46;34.17;;;17.23;;
52432;SDS011;38352;53.244;6.594;2024-01-11T13:20:13;38.10;;;16.95;;
52432;SDS011;38352;53.244;6.594;2024-01-11T13:22:40;38.25;;;16.77;;
52432;SDS011;38352;53.244;6.594;2024-01-11T13:25:06;34.58;;;15.90;;
52432;SDS011;38352;53.244;6.594;2024-01-11T13:27:32;38.20;;;16.40;;
52432;SDS011;38352;53.244;6.594;2024-01-11T13:29:58;35.90;;;16.48;;
52432;SDS011;38352;53.244;6.594;2024-01-11T13:32:24;34.17;;;16.17;;
52432;SDS011;38352;53.244;6.594;2024-01-11T13:34:50;39.00;;;18.33;;
52432;SDS011;38352;53.244;6.594;2024-01-11T13:37:20;33.85;;;17.20;;
52432;SDS011;38352;53.244;6.594;2024-01-11T13:39:46;40.60;;;16.35;;
52432;SDS011;38352;53.244;6.594;2024-01-11T13:42:13;38.67;;;17.00;;
52432;SDS011;38352;53.244;6.594;2024-01-11T13:44:41;40.55;;;17.25;;
52432;SDS011;38352;53.244;6.594;2024-01-11T13:47:07;33.13;;;17.13;;
52432;SDS011;38352;53.244;6.594;2024-01-11T13:49:33;35.55;;;15.10;;
52432;SDS011;38352;53.244;6.594;2024-01-11T13:51:59;34.22;;;16.30;;
52432;SDS011;38352;53.244;6.594;2024-01-11T13:54:26;33.13;;;17.92;;
52432;SDS011;38352;53.244;6.594;2024-01-11T13:56:52;38.92;;;18.70;;
52432;SDS011;38352;53.244;6.594;2024-01-11T13:59:18;40.33;;;18.23;;
52432;SDS011;38352;53.244;6.594;2024-01-11T14:01:45;39.20;;;17.50;;
52432;SDS011;38352;53.244;6.594;2024-01-11T14:04:11;42.70;;;18.95;;
52432;SDS011;38352;53.244;6.594;2024-01-11T14:06:37;38.60;;;18.38;;
52432;SDS011;38352;53.244;6.594;2024-01-11T14:09:03;44.88;;;20.80;;
52432;SDS011;38352;53.244;6.594;2024-01-11T14:11:32;41.28;;;19.02;;
52432;SDS011;38352;53.244;6.594;2024-01-11T14:13:58;42.83;;;19.33;;
52432;SDS011;38352;53.244;6.594;2024-01-11T14:16:24;39.15;;;20.73;;
52432;SDS011;38352;53.244;6.594;2024-01-11T14:18:50;31.13;;;18.85;;
52432;SDS011;38352;53.244;6.594;2024-01-11T14:21:17;39.38;;;19.13;;
52432;SDS011;38352;53.244;6.594;2024-01-11T14:23:43;37.30;;;19.98;;